sensor_id;sensor_type;location;lat;lon;timestamp;temperature;humidity
53695;DHT22;39588;51.124;7.190;2023-02-03T00:04:38;7.60;99.90
53695;DHT22;39588;51.124;7.190;2023-02-03T00:07:04;7.60;99.90
53695;DHT22;39588;51.124;7.190;2023-02-03T00:09:30;7.60;99.90
53695;DHT22;39588;51.124;7.190;2023-02-03T00:11:55;7.60;99.90
53695;DHT22;39588;51.124;7.190;2023-02-03T00:14:21;7.60;99.90
53695;DHT22;39588;51.124;7.190;2023-02-03T00:24:05;7.70;99.90
53695;DHT22;39588;51.124;7.190;2023-02-03T00:26:30;7.70;99.90
53695;DHT22;39588;51.124;7.190;2023-02-03T00:28:58;7.60;99.90
53695;DHT22;39588;51.124;7.190;2023-02-03T00:31:23;7.60;99.90
53695;DHT22;39588;51.124;7.190;2023-02-03T00:33:58;7.60;99.90
53695;DHT22;39588;51.124;7.190;2023-02-03T00:36:24;7.60;99.90
53695;DHT22;39588;51.124;7.190;2023-02-03T00:38:50;7.70;99.90
53695;DHT22;39588;51.124;7.190;2023-02-03T00:41:16;7.60;99.90
53695;DHT22;39588;51.124;7.190;2023-02-03T00:43:42;7.60;99.90
53695;DHT22;39588;51.124;7.190;2023-02-03T00:55:52;7.70;99.90
53695;DHT22;39588;51.124;7.190;2023-02-03T00:58:17;7.70;99.90
53695;DHT22;39588;51.124;7.190;2023-02-03T01:00:43;7.70;99.90
53695;DHT22;39588;51.124;7.190;2023-02-03T01:05:35;7.60;99.90
53695;DHT22;39588;51.124;7.190;2023-02-03T01:08:01;7.60;99.90
53695;DHT22;39588;51.124;7.190;2023-02-03T01:10:27;7.60;99.90
53695;DHT22;39588;51.124;7.190;2023-02-03T01:22:38;7.60;99.90
53695;DHT22;39588;51.124;7.190;2023-02-03T01:25:04;7.60;99.90
53695;DHT22;39588;51.124;7.190;2023-02-03T01:27:31;7.70;99.90
53695;DHT22;39588;51.124;7.190;2023-02-03T01:39:42;7.70;99.90
53695;DHT22;39588;51.124;7.190;2023-02-03T01:42:12;7.70;99.90
53695;DHT22;39588;51.124;7.190;2023-02-03T01:44:48;7.70;99.90
53695;DHT22;39588;51.124;7.190;2023-02-03T01:49:54;7.70;99.90
53695;DHT22;39588;51.124;7.190;2023-02-03T01:52:20;7.70;99.90
53695;DHT22;39588;51.124;7.190;2023-02-03T01:54:47;7.70;99.90
53695;DHT22;39588;51.124;7.190;2023-02-03T01:57:28;7.70;99.90
53695;DHT22;39588;51.124;7.190;2023-02-03T01:59:58;7.70;99.90
53695;DHT22;39588;51.124;7.190;2023-02-03T02:02:26;7.70;99.90
53695;DHT22;39588;51.124;7.190;2023-02-03T02:05:04;7.70;99.90
53695;DHT22;39588;51.124;7.190;2023-02-03T02:07:31;7.70;99.90
53695;DHT22;39588;51.124;7.190;2023-02-03T02:09:59;7.70;99.90
53695;DHT22;39588;51.124;7.190;2023-02-03T02:12:26;7.70;99.90
53695;DHT22;39588;51.124;7.190;2023-02-03T02:14:51;7.70;99.90
53695;DHT22;39588;51.124;7.190;2023-02-03T02:34:23;7.70;99.90
53695;DHT22;39588;51.124;7.190;2023-02-03T02:39:45;7.70;99.90
53695;DHT22;39588;51.124;7.190;2023-02-03T02:42:23;7.70;99.90
53695;DHT22;39588;51.124;7.190;2023-02-03T02:44:55;7.70;99.90
53695;DHT22;39588;51.124;7.190;2023-02-03T02:50:20;7.80;99.90
53695;DHT22;39588;51.124;7.190;2023-02-03T02:52:48;7.80;99.90
53695;DHT22;39588;51.124;7.190;2023-02-03T02:55:28;7.80;99.90
53695;DHT22;39588;51.124;7.190;2023-02-03T02:58:04;7.70;99.90
53695;DHT22;39588;51.124;7.190;2023-02-03T03:00:33;7.80;99.90
53695;DHT22;39588;51.124;7.190;2023-02-03T03:03:18;7.80;99.90
53695;DHT22;39588;51.124;7.190;2023-02-03T03:06:06;7.80;99.90
53695;DHT22;39588;51.124;7.190;2023-02-03T03:11:24;7.70;99.90
53695;DHT22;39588;51.124;7.190;2023-02-03T03:13:53;7.70;99.90
53695;DHT22;39588;51.124;7.190;2023-02-03T03:16:23;7.70;99.90
53695;DHT22;39588;51.124;7.190;2023-02-03T03:19:03;7.70;99.90
53695;DHT22;39588;51.124;7.190;2023-02-03T03:21:42;7.70;99.90
53695;DHT22;39588;51.124;7.190;2023-02-03T03:24:13;7.80;99.90
53695;DHT22;39588;51.124;7.190;2023-02-03T03:27:09;7.70;99.90
53695;DHT22;39588;51.124;7.190;2023-02-03T03:32:03;7.70;99.90
53695;DHT22;39588;51.124;7.190;2023-02-03T03:34:29;7.80;99.90
53695;DHT22;39588;51.124;7.190;2023-02-03T03:37:03;7.70;99.90
53695;DHT22;39588;51.124;7.190;2023-02-03T03:45:19;7.70;99.90
53695;DHT22;39588;51.124;7.190;2023-02-03T03:48:43;7.80;99.90
53695;DHT22;39588;51.124;7.190;2023-02-03T03:50:51;7.80;99.90
53695;DHT22;39588;51.124;7.190;2023-02-03T03:53:19;7.80;99.90
53695;DHT22;39588;51.124;7.190;2023-02-03T03:55:49;7.80;99.90
53695;DHT22;39588;51.124;7.190;2023-02-03T03:58:30;7.80;99.90
53695;DHT22;39588;51.124;7.190;2023-02-03T04:01:00;7.80;99.90
53695;DHT22;39588;51.124;7.190;2023-02-03T04:03:52;7.80;99.90
53695;DHT22;39588;51.124;7.190;2023-02-03T04:06:19;7.80;99.90
53695;DHT22;39588;51.124;7.190;2023-02-03T04:08:44;7.70;99.90
53695;DHT22;39588;51.124;7.190;2023-02-03T04:11:10;7.70;99.90
53695;DHT22;39588;51.124;7.190;2023-02-03T04:16:21;7.80;99.90
53695;DHT22;39588;51.124;7.190;2023-02-03T04:18:47;7.80;99.90
53695;DHT22;39588;51.124;7.190;2023-02-03T04:21:13;7.80;99.90
53695;DHT22;39588;51.124;7.190;2023-02-03T04:30:59;7.80;99.90
53695;DHT22;39588;51.124;7.190;2023-02-03T04:33:25;7.80;99.90
53695;DHT22;39588;51.124;7.190;2023-02-03T04:35:53;7.80;99.90
53695;DHT22;39588;51.124;7.190;2023-02-03T04:40:45;7.80;99.90
53695;DHT22;39588;51.124;7.190;2023-02-03T04:48:04;7.80;99.90
53695;DHT22;39588;51.124;7.190;2023-02-03T04:50:30;7.80;99.90
53695;DHT22;39588;51.124;7.190;2023-02-03T04:52:56;7.80;99.90
53695;DHT22;39588;51.124;7.190;2023-02-03T04:55:26;7.80;99.90
53695;DHT22;39588;51.124;7.190;2023-02-03T04:57:59;7.80;99.90
53695;DHT22;39588;51.124;7.190;2023-02-03T05:00:25;7.80;99.90
53695;DHT22;39588;51.124;7.190;2023-02-03T05:07:43;7.80;99.90
53695;DHT22;39588;51.124;7.190;2023-02-03T05:10:09;7.80;99.90
53695;DHT22;39588;51.124;7.190;2023-02-03T05:12:35;7.80;99.90
53695;DHT22;39588;51.124;7.190;2023-02-03T05:15:00;7.80;99.90
53695;DHT22;39588;51.124;7.190;2023-02-03T05:27:10;7.80;99.90
53695;DHT22;39588;51.124;7.190;2023-02-03T05:29:36;7.70;99.90
53695;DHT22;39588;51.124;7.190;2023-02-03T05:32:02;7.70;99.90
53695;DHT22;39588;51.124;7.190;2023-02-03T05:34:27;7.80;99.90
53695;DHT22;39588;51.124;7.190;2023-02-03T05:36:53;7.80;99.90
53695;DHT22;39588;51.124;7.190;2023-02-03T05:39:19;7.80;99.90
53695;DHT22;39588;51.124;7.190;2023-02-03T05:44:20;7.80;99.90
53695;DHT22;39588;51.124;7.190;2023-02-03T05:46:46;7.80;99.90
53695;DHT22;39588;51.124;7.190;2023-02-03T05:51:38;7.80;99.90
53695;DHT22;39588;51.124;7.190;2023-02-03T05:54:04;7.80;99.90
53695;DHT22;39588;51.124;7.190;2023-02-03T05:56:30;7.80;99.90
53695;DHT22;39588;51.124;7.190;2023-02-03T05:58:56;7.80;99.90
53695;DHT22;39588;51.124;7.190;2023-02-03T06:01:21;7.80;99.90
53695;DHT22;39588;51.124;7.190;2023-02-03T06:03:47;7.80;99.90
53695;DHT22;39588;51.124;7.190;2023-02-03T06:11:05;7.80;99.90
53695;DHT22;39588;51.124;7.190;2023-02-03T06:13:31;7.90;99.90
53695;DHT22;39588;51.124;7.190;2023-02-03T06:15:56;7.80;99.90
53695;DHT22;39588;51.124;7.190;2023-02-03T06:18:22;7.90;99.90
53695;DHT22;39588;51.124;7.190;2023-02-03T06:28:07;7.80;99.90
53695;DHT22;39588;51.124;7.190;2023-02-03T06:30:33;7.80;99.90
53695;DHT22;39588;51.124;7.190;2023-02-03T06:32:59;7.80;99.90
53695;DHT22;39588;51.124;7.190;2023-02-03T06:35:24;7.80;99.90
53695;DHT22;39588;51.124;7.190;2023-02-03T06:37:50;7.80;99.90
53695;DHT22;39588;51.124;7.190;2023-02-03T06:40:16;7.80;99.90
53695;DHT22;39588;51.124;7.190;2023-02-03T06:42:47;7.80;99.90
53695;DHT22;39588;51.124;7.190;2023-02-03T06:47:41;7.80;99.90
53695;DHT22;39588;51.124;7.190;2023-02-03T06:57:25;7.80;99.90
53695;DHT22;39588;51.124;7.190;2023-02-03T06:59:50;7.80;99.90
53695;DHT22;39588;51.124;7.190;2023-02-03T07:02:16;7.80;99.90
53695;DHT22;39588;51.124;7.190;2023-02-03T07:04:41;7.80;99.90
53695;DHT22;39588;51.124;7.190;2023-02-03T07:07:10;7.80;99.90
53695;DHT22;39588;51.124;7.190;2023-02-03T07:09:37;7.80;99.90
53695;DHT22;39588;51.124;7.190;2023-02-03T07:12:03;7.80;99.90
53695;DHT22;39588;51.124;7.190;2023-02-03T07:14:28;7.80;99.90
53695;DHT22;39588;51.124;7.190;2023-02-03T07:16:55;7.80;99.90
53695;DHT22;39588;51.124;7.190;2023-02-03T07:19:21;7.80;99.90
53695;DHT22;39588;51.124;7.190;2023-02-03T07:24:13;7.80;99.90
53695;DHT22;39588;51.124;7.190;2023-02-03T07:26:38;7.80;99.90
53695;DHT22;39588;51.124;7.190;2023-02-03T07:29:04;7.80;99.90
53695;DHT22;39588;51.124;7.190;2023-02-03T07:31:30;7.80;99.90
53695;DHT22;39588;51.124;7.190;2023-02-03T07:38:49;7.80;99.90
53695;DHT22;39588;51.124;7.190;2023-02-03T07:41:15;7.80;99.90
53695;DHT22;39588;51.124;7.190;2023-02-03T07:50:58;7.70;99.90
53695;DHT22;39588;51.124;7.190;2023-02-03T07:53:24;7.70;99.90
53695;DHT22;39588;51.124;7.190;2023-02-03T07:55:49;7.70;99.90
53695;DHT22;39588;51.124;7.190;2023-02-03T07:58:15;7.70;99.90
53695;DHT22;39588;51.124;7.190;2023-02-03T08:00:41;7.70;99.90
53695;DHT22;39588;51.124;7.190;2023-02-03T08:03:07;7.70;99.90
53695;DHT22;39588;51.124;7.190;2023-02-03T08:07:59;7.70;99.90
53695;DHT22;39588;51.124;7.190;2023-02-03T08:10:25;7.70;99.90
53695;DHT22;39588;51.124;7.190;2023-02-03T08:12:54;7.70;99.90
53695;DHT22;39588;51.124;7.190;2023-02-03T08:15:20;7.70;99.90
53695;DHT22;39588;51.124;7.190;2023-02-03T08:17:48;7.70;99.90
53695;DHT22;39588;51.124;7.190;2023-02-03T08:20:14;7.70;99.90
53695;DHT22;39588;51.124;7.190;2023-02-03T08:22:41;7.70;99.90
53695;DHT22;39588;51.124;7.190;2023-02-03T08:25:07;7.70;99.90
53695;DHT22;39588;51.124;7.190;2023-02-03T08:27:32;7.70;99.90
53695;DHT22;39588;51.124;7.190;2023-02-03T08:29:58;7.70;99.90
53695;DHT22;39588;51.124;7.190;2023-02-03T08:32:24;7.80;99.90
53695;DHT22;39588;51.124;7.190;2023-02-03T08:34:51;7.70;99.90
53695;DHT22;39588;51.124;7.190;2023-02-03T08:37:19;7.80;99.90
53695;DHT22;39588;51.124;7.190;2023-02-03T08:39:46;7.70;99.90
53695;DHT22;39588;51.124;7.190;2023-02-03T08:42:11;7.70;99.90
53695;DHT22;39588;51.124;7.190;2023-02-03T08:44:37;7.80;99.90
53695;DHT22;39588;51.124;7.190;2023-02-03T08:49:33;7.70;99.90
53695;DHT22;39588;51.124;7.190;2023-02-03T08:52:00;7.70;99.90
53695;DHT22;39588;51.124;7.190;2023-02-03T08:54:26;7.60;99.90
53695;DHT22;39588;51.124;7.190;2023-02-03T08:56:52;7.60;99.90
53695;DHT22;39588;51.124;7.190;2023-02-03T08:59:17;7.60;99.90
53695;DHT22;39588;51.124;7.190;2023-02-03T09:01:43;7.50;99.90
53695;DHT22;39588;51.124;7.190;2023-02-03T09:04:14;7.50;99.90
53695;DHT22;39588;51.124;7.190;2023-02-03T09:06:42;7.50;99.90
53695;DHT22;39588;51.124;7.190;2023-02-03T09:09:08;7.50;99.90
53695;DHT22;39588;51.124;7.190;2023-02-03T09:14:00;7.50;99.90
53695;DHT22;39588;51.124;7.190;2023-02-03T09:16:26;7.50;99.90
53695;DHT22;39588;51.124;7.190;2023-02-03T09:18:51;7.50;99.90
53695;DHT22;39588;51.124;7.190;2023-02-03T09:21:17;7.50;99.90
53695;DHT22;39588;51.124;7.190;2023-02-03T09:23:44;7.50;99.90
53695;DHT22;39588;51.124;7.190;2023-02-03T09:26:12;7.80;99.90
53695;DHT22;39588;51.124;7.190;2023-02-03T09:28:39;7.50;99.90
53695;DHT22;39588;51.124;7.190;2023-02-03T09:31:10;7.50;99.90
53695;DHT22;39588;51.124;7.190;2023-02-03T09:33:36;7.50;99.90
53695;DHT22;39588;51.124;7.190;2023-02-03T09:36:03;7.50;99.90
53695;DHT22;39588;51.124;7.190;2023-02-03T09:46:31;7.50;99.90
53695;DHT22;39588;51.124;7.190;2023-02-03T09:49:05;7.50;99.90
53695;DHT22;39588;51.124;7.190;2023-02-03T09:51:39;7.50;99.90
53695;DHT22;39588;51.124;7.190;2023-02-03T09:54:20;7.40;99.90
53695;DHT22;39588;51.124;7.190;2023-02-03T09:56:48;7.40;99.90
53695;DHT22;39588;51.124;7.190;2023-02-03T09:59:17;7.40;99.90
53695;DHT22;39588;51.124;7.190;2023-02-03T10:04:31;7.50;99.90
53695;DHT22;39588;51.124;7.190;2023-02-03T10:10:10;7.50;99.90
53695;DHT22;39588;51.124;7.190;2023-02-03T10:13:04;7.50;99.90
53695;DHT22;39588;51.124;7.190;2023-02-03T10:18:47;7.50;99.90
53695;DHT22;39588;51.124;7.190;2023-02-03T10:21:55;7.50;99.90
53695;DHT22;39588;51.124;7.190;2023-02-03T10:24:39;7.50;99.90
53695;DHT22;39588;51.124;7.190;2023-02-03T10:27:16;7.50;99.90
53695;DHT22;39588;51.124;7.190;2023-02-03T10:29:43;7.50;99.90
53695;DHT22;39588;51.124;7.190;2023-02-03T10:32:10;7.50;99.90
53695;DHT22;39588;51.124;7.190;2023-02-03T10:34:36;7.50;99.90
53695;DHT22;39588;51.124;7.190;2023-02-03T10:37:22;7.50;99.90
53695;DHT22;39588;51.124;7.190;2023-02-03T10:39:53;7.60;99.90
53695;DHT22;39588;51.124;7.190;2023-02-03T10:42:21;7.60;99.90
53695;DHT22;39588;51.124;7.190;2023-02-03T10:49:56;7.60;99.90
53695;DHT22;39588;51.124;7.190;2023-02-03T10:52:32;7.60;99.90
53695;DHT22;39588;51.124;7.190;2023-02-03T10:55:07;7.60;99.90
53695;DHT22;39588;51.124;7.190;2023-02-03T10:57:35;7.60;99.90
53695;DHT22;39588;51.124;7.190;2023-02-03T11:00:31;7.60;99.90
53695;DHT22;39588;51.124;7.190;2023-02-03T11:03:27;7.60;99.90
53695;DHT22;39588;51.124;7.190;2023-02-03T11:06:15;7.60;99.90
53695;DHT22;39588;51.124;7.190;2023-02-03T11:08:46;7.60;99.90
53695;DHT22;39588;51.124;7.190;2023-02-03T11:11:15;7.60;99.90
53695;DHT22;39588;51.124;7.190;2023-02-03T11:13:44;7.60;99.90
53695;DHT22;39588;51.124;7.190;2023-02-03T11:18:45;7.60;99.90
53695;DHT22;39588;51.124;7.190;2023-02-03T11:26:34;7.60;99.90
53695;DHT22;39588;51.124;7.190;2023-02-03T11:29:03;7.70;99.90
53695;DHT22;39588;51.124;7.190;2023-02-03T11:31:35;7.70;99.90
53695;DHT22;39588;51.124;7.190;2023-02-03T11:34:13;7.70;99.90
53695;DHT22;39588;51.124;7.190;2023-02-03T11:36:40;7.70;99.90
53695;DHT22;39588;51.124;7.190;2023-02-03T11:39:13;7.70;99.90
53695;DHT22;39588;51.124;7.190;2023-02-03T11:44:11;7.70;99.90
53695;DHT22;39588;51.124;7.190;2023-02-03T11:46:38;7.70;99.90
53695;DHT22;39588;51.124;7.190;2023-02-03T12:06:07;7.80;99.90
53695;DHT22;39588;51.124;7.190;2023-02-03T12:08:57;7.80;99.90
53695;DHT22;39588;51.124;7.190;2023-02-03T12:12:13;7.90;99.90
53695;DHT22;39588;51.124;7.190;2023-02-03T12:26:24;7.90;99.90
53695;DHT22;39588;51.124;7.190;2023-02-03T12:28:55;7.90;99.90
53695;DHT22;39588;51.124;7.190;2023-02-03T12:31:37;7.90;99.90
53695;DHT22;39588;51.124;7.190;2023-02-03T12:34:28;8.00;99.90
53695;DHT22;39588;51.124;7.190;2023-02-03T12:37:05;8.00;99.90
53695;DHT22;39588;51.124;7.190;2023-02-03T12:39:44;8.00;99.90
53695;DHT22;39588;51.124;7.190;2023-02-03T12:42:29;8.00;99.90
53695;DHT22;39588;51.124;7.190;2023-02-03T12:45:00;8.00;99.90
53695;DHT22;39588;51.124;7.190;2023-02-03T12:47:33;8.00;99.90
53695;DHT22;39588;51.124;7.190;2023-02-03T12:50:22;8.00;99.90
53695;DHT22;39588;51.124;7.190;2023-02-03T12:52:59;8.00;99.90
53695;DHT22;39588;51.124;7.190;2023-02-03T12:55:40;8.00;99.90
53695;DHT22;39588;51.124;7.190;2023-02-03T13:00:47;8.10;99.90
53695;DHT22;39588;51.124;7.190;2023-02-03T13:03:32;8.10;99.90
53695;DHT22;39588;51.124;7.190;2023-02-03T13:08:52;8.10;99.90
53695;DHT22;39588;51.124;7.190;2023-02-03T13:11:27;8.10;99.90
53695;DHT22;39588;51.124;7.190;2023-02-03T13:14:02;8.10;99.90
53695;DHT22;39588;51.124;7.190;2023-02-03T13:16:35;8.10;99.90
53695;DHT22;39588;51.124;7.190;2023-02-03T13:19:07;8.10;99.90
53695;DHT22;39588;51.124;7.190;2023-02-03T13:21:35;8.10;99.90
53695;DHT22;39588;51.124;7.190;2023-02-03T13:24:03;8.20;99.90
53695;DHT22;39588;51.124;7.190;2023-02-03T13:26:34;8.20;99.90
53695;DHT22;39588;51.124;7.190;2023-02-03T13:29:43;8.20;99.90
53695;DHT22;39588;51.124;7.190;2023-02-03T13:33:03;8.20;99.90
53695;DHT22;39588;51.124;7.190;2023-02-03T13:43:45;8.30;99.90
53695;DHT22;39588;51.124;7.190;2023-02-03T13:46:47;8.30;99.90
53695;DHT22;39588;51.124;7.190;2023-02-03T13:49:40;8.30;99.90
53695;DHT22;39588;51.124;7.190;2023-02-03T13:52:25;8.30;99.90
53695;DHT22;39588;51.124;7.190;2023-02-03T13:54:52;8.30;99.90
53695;DHT22;39588;51.124;7.190;2023-02-03T14:04:53;8.40;99.90
53695;DHT22;39588;51.124;7.190;2023-02-03T14:07:37;8.40;99.90
53695;DHT22;39588;51.124;7.190;2023-02-03T14:12:55;8.40;99.90
53695;DHT22;39588;51.124;7.190;2023-02-03T14:23:15;8.50;99.90
53695;DHT22;39588;51.124;7.190;2023-02-03T14:26:04;8.50;99.90
53695;DHT22;39588;51.124;7.190;2023-02-03T14:28:41;8.40;99.90
53695;DHT22;39588;51.124;7.190;2023-02-03T14:33:48;8.40;99.90
53695;DHT22;39588;51.124;7.190;2023-02-03T14:36:36;8.40;99.90
53695;DHT22;39588;51.124;7.190;2023-02-03T14:47:46;8.40;99.90
53695;DHT22;39588;51.124;7.190;2023-02-03T14:55:15;8.40;99.90
53695;DHT22;39588;51.124;7.190;2023-02-03T14:57:55;8.40;99.90
53695;DHT22;39588;51.124;7.190;2023-02-03T15:08:03;8.30;99.90
53695;DHT22;39588;51.124;7.190;2023-02-03T15:10:41;8.30;99.90
53695;DHT22;39588;51.124;7.190;2023-02-03T15:13:43;8.30;99.90
53695;DHT22;39588;51.124;7.190;2023-02-03T15:16:14;8.20;99.90
53695;DHT22;39588;51.124;7.190;2023-02-03T15:18:41;8.20;99.90
53695;DHT22;39588;51.124;7.190;2023-02-03T15:21:18;8.20;99.90
53695;DHT22;39588;51.124;7.190;2023-02-03T15:23:45;8.20;99.90
53695;DHT22;39588;51.124;7.190;2023-02-03T15:26:21;8.10;99.90
53695;DHT22;39588;51.124;7.190;2023-02-03T15:29:00;8.10;99.90
53695;DHT22;39588;51.124;7.190;2023-02-03T15:31:37;8.00;99.90
53695;DHT22;39588;51.124;7.190;2023-02-03T15:34:28;7.80;99.90
53695;DHT22;39588;51.124;7.190;2023-02-03T15:37:02;7.60;99.90
53695;DHT22;39588;51.124;7.190;2023-02-03T15:42:04;7.50;99.90
53695;DHT22;39588;51.124;7.190;2023-02-03T15:45:00;7.40;99.90
53695;DHT22;39588;51.124;7.190;2023-02-03T15:47:40;7.30;99.90
53695;DHT22;39588;51.124;7.190;2023-02-03T15:52:48;7.30;99.90
53695;DHT22;39588;51.124;7.190;2023-02-03T15:55:40;7.30;99.90
53695;DHT22;39588;51.124;7.190;2023-02-03T16:00:49;7.30;99.90
53695;DHT22;39588;51.124;7.190;2023-02-03T16:03:20;7.40;99.90
53695;DHT22;39588;51.124;7.190;2023-02-03T16:05:47;7.40;99.90
53695;DHT22;39588;51.124;7.190;2023-02-03T16:08:36;7.40;99.90
53695;DHT22;39588;51.124;7.190;2023-02-03T16:13:48;7.40;99.90
53695;DHT22;39588;51.124;7.190;2023-02-03T16:18:54;7.40;99.90
53695;DHT22;39588;51.124;7.190;2023-02-03T16:21:32;7.40;99.90
53695;DHT22;39588;51.124;7.190;2023-02-03T16:23:59;7.50;99.90
53695;DHT22;39588;51.124;7.190;2023-02-03T16:26:27;7.50;99.90
53695;DHT22;39588;51.124;7.190;2023-02-03T16:34:37;7.50;99.90
53695;DHT22;39588;51.124;7.190;2023-02-03T16:37:30;7.50;99.90
53695;DHT22;39588;51.124;7.190;2023-02-03T16:40:21;7.50;99.90
53695;DHT22;39588;51.124;7.190;2023-02-03T16:43:14;7.50;99.90
53695;DHT22;39588;51.124;7.190;2023-02-03T16:45:59;7.50;99.90
53695;DHT22;39588;51.124;7.190;2023-02-03T16:48:44;7.50;99.90
53695;DHT22;39588;51.124;7.190;2023-02-03T16:51:36;7.50;99.90
53695;DHT22;39588;51.124;7.190;2023-02-03T16:54:02;7.50;99.90
53695;DHT22;39588;51.124;7.190;2023-02-03T16:58:54;7.50;99.90
53695;DHT22;39588;51.124;7.190;2023-02-03T17:06:12;7.50;99.90
53695;DHT22;39588;51.124;7.190;2023-02-03T17:08:39;7.40;99.90
53695;DHT22;39588;51.124;7.190;2023-02-03T17:11:20;7.40;99.90
53695;DHT22;39588;51.124;7.190;2023-02-03T17:13:47;7.40;99.90
53695;DHT22;39588;51.124;7.190;2023-02-03T17:16:17;7.40;99.90
53695;DHT22;39588;51.124;7.190;2023-02-03T17:18:44;7.30;99.90
53695;DHT22;39588;51.124;7.190;2023-02-03T17:21:13;7.30;99.90
53695;DHT22;39588;51.124;7.190;2023-02-03T17:23:39;7.30;99.90
53695;DHT22;39588;51.124;7.190;2023-02-03T17:26:06;7.30;99.90
53695;DHT22;39588;51.124;7.190;2023-02-03T17:28:32;7.30;99.90
53695;DHT22;39588;51.124;7.190;2023-02-03T17:31:00;7.30;99.90
53695;DHT22;39588;51.124;7.190;2023-02-03T17:33:27;7.30;99.90
53695;DHT22;39588;51.124;7.190;2023-02-03T17:36:11;7.20;99.90
53695;DHT22;39588;51.124;7.190;2023-02-03T17:38:42;7.20;99.90
53695;DHT22;39588;51.124;7.190;2023-02-03T17:41:10;7.20;99.90
53695;DHT22;39588;51.124;7.190;2023-02-03T17:46:02;7.20;99.90
53695;DHT22;39588;51.124;7.190;2023-02-03T17:50:54;7.10;99.90
53695;DHT22;39588;51.124;7.190;2023-02-03T17:53:29;7.10;99.90
53695;DHT22;39588;51.124;7.190;2023-02-03T17:55:54;7.10;99.90
53695;DHT22;39588;51.124;7.190;2023-02-03T17:58:20;7.10;99.90
53695;DHT22;39588;51.124;7.190;2023-02-03T18:00:46;7.10;99.90
53695;DHT22;39588;51.124;7.190;2023-02-03T18:08:04;7.10;99.90
53695;DHT22;39588;51.124;7.190;2023-02-03T18:10:31;7.00;99.90
53695;DHT22;39588;51.124;7.190;2023-02-03T18:12:57;7.00;99.90
53695;DHT22;39588;51.124;7.190;2023-02-03T18:17:48;7.00;99.90
53695;DHT22;39588;51.124;7.190;2023-02-03T18:20:14;7.00;99.90
53695;DHT22;39588;51.124;7.190;2023-02-03T18:25:06;6.90;99.90
53695;DHT22;39588;51.124;7.190;2023-02-03T18:34:52;6.90;99.90
53695;DHT22;39588;51.124;7.190;2023-02-03T18:37:17;6.80;99.90
53695;DHT22;39588;51.124;7.190;2023-02-03T18:39:43;6.80;99.90
53695;DHT22;39588;51.124;7.190;2023-02-03T18:42:08;6.80;99.90
53695;DHT22;39588;51.124;7.190;2023-02-03T18:49:31;6.70;99.90
53695;DHT22;39588;51.124;7.190;2023-02-03T18:51:57;6.70;99.90
53695;DHT22;39588;51.124;7.190;2023-02-03T19:01:42;6.60;99.90
53695;DHT22;39588;51.124;7.190;2023-02-03T19:04:10;6.60;99.90
53695;DHT22;39588;51.124;7.190;2023-02-03T19:06:36;6.60;99.90
53695;DHT22;39588;51.124;7.190;2023-02-03T19:09:04;6.50;99.90
53695;DHT22;39588;51.124;7.190;2023-02-03T19:11:31;6.50;99.90
53695;DHT22;39588;51.124;7.190;2023-02-03T19:16:24;6.50;99.90
53695;DHT22;39588;51.124;7.190;2023-02-03T19:21:17;6.50;99.90
53695;DHT22;39588;51.124;7.190;2023-02-03T19:23:42;6.50;99.90
53695;DHT22;39588;51.124;7.190;2023-02-03T19:26:08;6.50;99.90
53695;DHT22;39588;51.124;7.190;2023-02-03T19:28:34;6.50;99.90
53695;DHT22;39588;51.124;7.190;2023-02-03T19:31:10;6.50;99.90
53695;DHT22;39588;51.124;7.190;2023-02-03T19:33:37;6.50;99.90
53695;DHT22;39588;51.124;7.190;2023-02-03T19:36:04;6.50;99.90
53695;DHT22;39588;51.124;7.190;2023-02-03T19:38:29;6.50;99.90
53695;DHT22;39588;51.124;7.190;2023-02-03T19:40:55;6.50;99.90
53695;DHT22;39588;51.124;7.190;2023-02-03T19:43:21;6.50;99.90
53695;DHT22;39588;51.124;7.190;2023-02-03T19:45:49;6.50;99.90
53695;DHT22;39588;51.124;7.190;2023-02-03T19:48:15;6.60;99.90
53695;DHT22;39588;51.124;7.190;2023-02-03T19:53:11;6.50;99.90
53695;DHT22;39588;51.124;7.190;2023-02-03T19:55:37;6.50;99.90
53695;DHT22;39588;51.124;7.190;2023-02-03T20:15:06;6.70;99.90
53695;DHT22;39588;51.124;7.190;2023-02-03T20:17:31;6.70;99.90
53695;DHT22;39588;51.124;7.190;2023-02-03T20:19:57;6.70;99.90
53695;DHT22;39588;51.124;7.190;2023-02-03T20:22:22;6.70;99.90
53695;DHT22;39588;51.124;7.190;2023-02-03T20:24:48;6.70;99.90
53695;DHT22;39588;51.124;7.190;2023-02-03T20:27:14;6.70;99.90
53695;DHT22;39588;51.124;7.190;2023-02-03T20:39:25;6.70;99.90
53695;DHT22;39588;51.124;7.190;2023-02-03T20:41:52;6.70;99.90
53695;DHT22;39588;51.124;7.190;2023-02-03T20:44:17;6.80;99.90
53695;DHT22;39588;51.124;7.190;2023-02-03T20:46:44;6.70;99.90
53695;DHT22;39588;51.124;7.190;2023-02-03T20:49:11;6.80;99.90
53695;DHT22;39588;51.124;7.190;2023-02-03T20:51:37;6.70;99.90
53695;DHT22;39588;51.124;7.190;2023-02-03T20:54:17;6.70;99.90
53695;DHT22;39588;51.124;7.190;2023-02-03T20:56:43;6.70;99.90
53695;DHT22;39588;51.124;7.190;2023-02-03T20:59:15;6.70;99.90
53695;DHT22;39588;51.124;7.190;2023-02-03T21:01:42;6.70;99.90
53695;DHT22;39588;51.124;7.190;2023-02-03T21:04:15;6.70;99.90
53695;DHT22;39588;51.124;7.190;2023-02-03T21:07:14;6.60;99.90
53695;DHT22;39588;51.124;7.190;2023-02-03T21:09:42;6.60;99.90
53695;DHT22;39588;51.124;7.190;2023-02-03T21:12:11;6.60;99.90
53695;DHT22;39588;51.124;7.190;2023-02-03T21:14:41;6.60;99.90
53695;DHT22;39588;51.124;7.190;2023-02-03T21:17:22;6.60;99.90
53695;DHT22;39588;51.124;7.190;2023-02-03T21:19:49;6.60;99.90
53695;DHT22;39588;51.124;7.190;2023-02-03T21:22:16;6.60;99.90
53695;DHT22;39588;51.124;7.190;2023-02-03T21:24:54;6.60;99.90
53695;DHT22;39588;51.124;7.190;2023-02-03T21:27:29;6.60;99.90
53695;DHT22;39588;51.124;7.190;2023-02-03T21:29:57;6.60;99.90
53695;DHT22;39588;51.124;7.190;2023-02-03T21:32:37;6.60;99.90
53695;DHT22;39588;51.124;7.190;2023-02-03T21:37:56;6.60;99.90
53695;DHT22;39588;51.124;7.190;2023-02-03T21:40:28;6.60;99.90
53695;DHT22;39588;51.124;7.190;2023-02-03T21:42:54;6.60;99.90
53695;DHT22;39588;51.124;7.190;2023-02-03T21:45:34;6.60;99.90
53695;DHT22;39588;51.124;7.190;2023-02-03T21:48:22;6.70;99.90
53695;DHT22;39588;51.124;7.190;2023-02-03T21:55:41;6.60;99.90
53695;DHT22;39588;51.124;7.190;2023-02-03T22:00:54;6.60;99.90
53695;DHT22;39588;51.124;7.190;2023-02-03T22:03:26;6.60;99.90
53695;DHT22;39588;51.124;7.190;2023-02-03T22:06:52;6.60;99.90
53695;DHT22;39588;51.124;7.190;2023-02-03T22:09:13;6.50;99.90
53695;DHT22;39588;51.124;7.190;2023-02-03T22:11:39;6.50;99.90
53695;DHT22;39588;51.124;7.190;2023-02-03T22:14:05;6.50;99.90
53695;DHT22;39588;51.124;7.190;2023-02-03T22:26:16;6.60;99.90
53695;DHT22;39588;51.124;7.190;2023-02-03T22:31:09;6.50;99.90
53695;DHT22;39588;51.124;7.190;2023-02-03T22:33:36;6.50;99.90
53695;DHT22;39588;51.124;7.190;2023-02-03T22:36:03;6.40;99.90
53695;DHT22;39588;51.124;7.190;2023-02-03T22:38:31;6.40;99.90
53695;DHT22;39588;51.124;7.190;2023-02-03T22:55:35;6.40;99.90
53695;DHT22;39588;51.124;7.190;2023-02-03T22:58:02;6.40;99.90